createdAt,value
2019-05-30T00:00:06.755Z,10.89
2019-05-30T00:02:28.692Z,10.83
2019-05-30T00:05:02.990Z,10.80
2019-05-30T00:07:36.610Z,10.76
2019-05-30T00:10:10.015Z,10.75
2019-05-30T00:12:43.407Z,10.72
2019-05-30T00:15:17.519Z,10.68
2019-05-30T00:17:50.961Z,10.62
2019-05-30T00:20:24.336Z,10.59
2019-05-30T00:22:58.825Z,10.53
2019-05-30T00:25:32.404Z,10.51
2019-05-30T00:28:05.930Z,10.48
2019-05-30T00:30:39.367Z,10.42
2019-05-30T00:33:12.811Z,10.36
2019-05-30T00:35:46.236Z,10.34
2019-05-30T00:38:20.662Z,10.29
2019-05-30T00:40:54.052Z,10.23
2019-05-30T00:43:27.493Z,10.21
2019-05-30T00:46:02.085Z,10.14
2019-05-30T00:48:35.550Z,10.13
2019-05-30T00:51:08.958Z,10.08
2019-05-30T00:53:42.339Z,10.04
2019-05-30T00:56:15.722Z,10.01
2019-05-30T00:58:49.177Z,9.98
2019-05-30T01:01:22.640Z,9.97
2019-05-30T01:03:56.728Z,9.92
2019-05-30T01:06:31.524Z,9.90
2019-05-30T01:09:05.443Z,9.89
2019-05-30T01:11:38.890Z,9.86
2019-05-30T01:14:12.308Z,9.83
2019-05-30T01:16:45.730Z,9.80
2019-05-30T01:19:19.182Z,9.76
2019-05-30T01:21:54.278Z,9.72
2019-05-30T01:24:27.801Z,9.66
2019-05-30T01:27:01.365Z,9.61
2019-05-30T01:29:34.884Z,9.58
2019-05-30T01:32:25.625Z,9.53
2019-05-30T01:34:59.936Z,9.53
2019-05-30T01:37:33.369Z,9.51
2019-05-30T01:40:08.716Z,9.49
2019-05-30T01:42:43.114Z,9.43
2019-05-30T01:45:16.661Z,9.41
2019-05-30T01:47:50.084Z,9.41
2019-05-30T01:50:23.829Z,9.34
2019-05-30T01:52:58.378Z,9.30
2019-05-30T01:55:31.936Z,9.24
2019-05-30T01:58:05.352Z,9.21
2019-05-30T02:00:41.069Z,9.15
2019-05-30T02:03:14.576Z,9.08
2019-05-30T02:05:48.141Z,9.06
2019-05-30T02:08:21.858Z,9.00
2019-05-30T02:10:55.261Z,8.93
2019-05-30T02:13:28.672Z,11.70
2019-05-30T02:16:03.634Z,15.96
2019-05-30T02:18:37.209Z,15.90
2019-05-30T02:21:10.671Z,14.35
2019-05-30T02:23:44.144Z,13.28
2019-05-30T02:26:17.664Z,12.63
2019-05-30T02:28:51.073Z,12.14
2019-05-30T02:31:38.439Z,11.77
2019-05-30T02:34:00.979Z,11.45
2019-05-30T02:36:34.668Z,11.19
2019-05-30T02:39:11.367Z,10.94
2019-05-30T02:41:44.648Z,10.70
2019-05-30T02:44:18.021Z,10.52
2019-05-30T02:46:53.111Z,10.32
2019-05-30T02:49:26.597Z,10.17
2019-05-30T02:52:00.028Z,9.98
2019-05-30T02:54:33.462Z,9.86
2019-05-30T02:57:07.901Z,9.70
2019-05-30T02:59:41.903Z,9.58
2019-05-30T03:02:17.613Z,9.45
2019-05-30T03:04:50.462Z,9.34
2019-05-30T03:07:24.071Z,9.24
2019-05-30T03:09:57.721Z,9.15
2019-05-30T03:12:31.384Z,9.08
2019-05-30T03:15:07.358Z,8.97
2019-05-30T03:18:21.060Z,11.41
2019-05-30T03:20:54.590Z,16.08
2019-05-30T03:23:28.583Z,15.90
2019-05-30T03:26:02.543Z,14.35
2019-05-30T03:28:37.593Z,13.30
2019-05-30T03:31:23.057Z,12.63
2019-05-30T03:33:46.823Z,12.16
2019-05-30T03:36:30.046Z,11.79
2019-05-30T03:38:55.254Z,11.46
2019-05-30T03:41:28.588Z,11.19
2019-05-30T03:44:03.843Z,10.96
2019-05-30T03:46:42.801Z,10.75
2019-05-30T03:49:21.876Z,10.53
2019-05-30T03:51:58.363Z,10.35
2019-05-30T03:54:32.809Z,10.20
2019-05-30T03:57:20.841Z,10.03
2019-05-30T04:00:08.529Z,9.92
2019-05-30T04:03:15.438Z,9.80
2019-05-30T04:05:56.741Z,13.24
2019-05-30T04:08:33.244Z,14.36
2019-05-30T04:11:11.971Z,13.28
2019-05-30T04:13:53.534Z,12.51
2019-05-30T04:16:27.499Z,12.01
2019-05-30T04:19:01.049Z,11.68
2019-05-30T04:21:35.964Z,11.45
2019-05-30T04:24:12.359Z,11.28
2019-05-30T04:26:45.613Z,11.11
2019-05-30T04:29:19.187Z,10.99
2019-05-30T04:31:52.699Z,10.93
2019-05-30T04:34:26.178Z,10.80
2019-05-30T04:36:59.656Z,10.75
2019-05-30T04:39:33.139Z,10.68
2019-05-30T04:42:06.677Z,10.62
2019-05-30T04:44:40.173Z,10.61
2019-05-30T04:47:14.265Z,10.58
2019-05-30T04:49:49.032Z,10.55
2019-05-30T04:52:24.749Z,10.56
2019-05-30T04:54:57.844Z,10.58
2019-05-30T04:57:31.624Z,10.61
2019-05-30T05:00:05.711Z,10.66
2019-05-30T05:02:39.599Z,10.72
2019-05-30T05:05:13.755Z,10.79
2019-05-30T05:07:50.667Z,10.87
2019-05-30T05:10:24.684Z,10.94
2019-05-30T05:12:58.171Z,11.07
2019-05-30T05:15:32.662Z,11.17
2019-05-30T05:18:06.699Z,11.29
2019-05-30T05:20:40.189Z,11.41
2019-05-30T05:23:13.634Z,11.55
2019-05-30T05:25:59.756Z,11.66
2019-05-30T05:28:22.210Z,11.79
2019-05-30T05:30:55.652Z,11.91
2019-05-30T05:33:29.133Z,12.05
2019-05-30T05:36:02.652Z,12.18
2019-05-30T05:38:36.208Z,12.32
2019-05-30T05:41:09.680Z,12.46
2019-05-30T05:43:43.171Z,12.60
2019-05-30T05:46:16.631Z,12.73
2019-05-30T05:48:50.125Z,12.88
2019-05-30T05:51:25.818Z,12.99
2019-05-30T05:53:59.352Z,13.13
2019-05-30T05:56:33.951Z,13.30
2019-05-30T05:59:07.467Z,13.45
2019-05-30T06:01:40.936Z,13.58
2019-05-30T06:04:14.453Z,13.70
2019-05-30T06:06:47.924Z,13.85
2019-05-30T06:09:22.594Z,13.98
2019-05-30T06:11:56.695Z,14.08
2019-05-30T06:14:30.198Z,14.21
2019-05-30T06:17:05.025Z,14.38
2019-05-30T06:19:46.275Z,14.48
2019-05-30T06:22:13.611Z,14.63
2019-05-30T06:24:47.135Z,14.76
2019-05-30T06:27:21.833Z,14.87
2019-05-30T06:29:55.406Z,15.01
2019-05-30T06:32:28.956Z,15.15
2019-05-30T06:35:03.490Z,15.28
2019-05-30T06:37:37.102Z,15.43
2019-05-30T06:40:11.157Z,15.56
2019-05-30T06:42:44.585Z,15.69
2019-05-30T06:45:20.927Z,15.77
2019-05-30T06:47:54.144Z,15.90
2019-05-30T06:50:29.035Z,16.03
2019-05-30T06:53:02.967Z,16.10
2019-05-30T06:55:37.424Z,16.21
2019-05-30T06:58:10.906Z,16.31
2019-05-30T07:00:45.782Z,16.39
2019-05-30T07:03:19.912Z,16.46
2019-05-30T07:05:53.829Z,16.55
2019-05-30T07:08:28.785Z,16.63
2019-05-30T07:11:02.525Z,16.74
2019-05-30T07:13:36.131Z,16.87
2019-05-30T07:16:09.996Z,17.00
2019-05-30T07:18:44.386Z,17.07
2019-05-30T07:21:17.860Z,17.18
2019-05-30T07:23:51.363Z,17.25
2019-05-30T07:26:25.869Z,17.32
2019-05-30T07:29:00.716Z,17.42
2019-05-30T07:31:34.527Z,17.48
2019-05-30T07:34:07.983Z,17.52
2019-05-30T07:36:41.895Z,17.59
2019-05-30T07:39:15.385Z,17.68
2019-05-30T07:42:04.996Z,17.76
2019-05-30T07:44:24.564Z,17.83
2019-05-30T07:46:59.204Z,17.91
2019-05-30T07:49:32.716Z,18.01
2019-05-30T07:52:06.850Z,18.07
2019-05-30T07:54:40.241Z,18.20
2019-05-30T07:57:13.711Z,18.25
2019-05-30T07:59:47.540Z,18.27
2019-05-30T08:02:21.245Z,18.35
2019-05-30T08:04:55.670Z,18.39
2019-05-30T08:07:29.148Z,18.48
2019-05-30T08:10:02.633Z,18.55
2019-05-30T08:12:36.265Z,18.62
2019-05-30T08:15:10.969Z,18.72
2019-05-30T08:17:49.946Z,18.83
2019-05-30T08:20:23.503Z,18.90
2019-05-30T08:22:56.975Z,18.95
2019-05-30T08:25:30.431Z,19.04
2019-05-30T08:28:03.865Z,19.17
2019-05-30T08:30:38.617Z,19.27
2019-05-30T08:33:12.229Z,19.37
2019-05-30T08:35:49.922Z,19.42
2019-05-30T08:38:21.097Z,19.53
2019-05-30T08:40:54.567Z,19.58
2019-05-30T08:43:29.223Z,19.60
2019-05-30T08:46:03.207Z,19.56
2019-05-30T08:48:36.754Z,19.56
2019-05-30T08:51:10.220Z,19.63
2019-05-30T08:53:43.701Z,19.63
2019-05-30T08:56:17.172Z,19.65
2019-05-30T08:58:50.814Z,19.70
2019-05-30T09:01:24.258Z,19.77
2019-05-30T09:03:58.313Z,19.81
2019-05-30T09:06:31.754Z,19.86
2019-05-30T09:09:06.806Z,19.90
2019-05-30T09:11:40.544Z,19.88
2019-05-30T09:14:14.105Z,19.94
2019-05-30T09:16:48.226Z,20.00
2019-05-30T09:19:22.809Z,20.01
2019-05-30T09:21:56.219Z,20.00
2019-05-30T09:24:29.665Z,20.03
2019-05-30T09:27:03.125Z,20.08
2019-05-30T09:29:37.898Z,20.14
2019-05-30T09:32:11.661Z,20.17
2019-05-30T09:34:46.997Z,20.18
2019-05-30T09:37:20.531Z,20.27
2019-05-30T09:39:54.458Z,20.31
2019-05-30T09:42:27.870Z,20.36
2019-05-30T09:45:01.177Z,20.46
2019-05-30T09:47:34.379Z,20.55
2019-05-30T09:50:08.055Z,20.63
2019-05-30T09:52:42.210Z,20.68
2019-05-30T09:55:18.266Z,20.69
2019-05-30T09:57:51.787Z,20.72
2019-05-30T10:00:27.433Z,20.75
2019-05-30T10:03:00.813Z,20.76
2019-05-30T10:05:34.291Z,20.86
2019-05-30T10:08:07.803Z,20.91
2019-05-30T10:10:43.829Z,20.97
2019-05-30T10:13:17.620Z,21.03
2019-05-30T10:15:52.717Z,21.04
2019-05-30T10:18:27.212Z,21.06
2019-05-30T10:21:00.773Z,21.08
2019-05-30T10:23:34.754Z,21.14
2019-05-30T10:26:08.464Z,21.22
2019-05-30T10:28:41.872Z,21.31
2019-05-30T10:31:15.304Z,21.37
2019-05-30T10:33:49.410Z,21.41
2019-05-30T10:36:23.260Z,21.52
2019-05-30T10:38:56.768Z,21.56
2019-05-30T10:41:30.633Z,21.62
2019-05-30T10:44:04.103Z,21.68
2019-05-30T10:46:37.627Z,21.74
2019-05-30T10:49:12.959Z,21.77
2019-05-30T10:51:47.776Z,21.74
2019-05-30T10:54:26.255Z,21.76
2019-05-30T10:57:00.873Z,21.77
2019-05-30T10:59:34.378Z,21.79
2019-05-30T11:02:12.204Z,21.81
2019-05-30T11:04:47.820Z,21.89
2019-05-30T11:07:33.798Z,21.95
2019-05-30T11:10:12.746Z,22.01
2019-05-30T11:12:46.662Z,22.07
2019-05-30T11:15:21.350Z,22.08
2019-05-30T11:17:56.186Z,22.07
2019-05-30T11:20:29.706Z,22.08
2019-05-30T11:23:03.040Z,22.10
2019-05-30T11:25:36.760Z,22.14
2019-05-30T11:28:10.360Z,22.14
2019-05-30T11:30:43.699Z,22.15
2019-05-30T11:33:17.085Z,22.21
2019-05-30T11:35:51.012Z,22.23
2019-05-30T11:38:24.413Z,22.27
2019-05-30T11:40:57.710Z,22.20
2019-05-30T11:43:31.077Z,22.23
2019-05-30T11:46:04.316Z,22.23
2019-05-30T11:48:37.647Z,22.23
2019-05-30T11:51:10.905Z,22.23
2019-05-30T11:53:44.149Z,22.24
2019-05-30T11:56:17.409Z,22.25
2019-05-30T11:58:51.941Z,22.28
2019-05-30T12:01:25.827Z,22.32
2019-05-30T12:04:00.678Z,22.35
2019-05-30T12:06:34.020Z,22.35
2019-05-30T12:09:09.025Z,22.34
2019-05-30T12:11:42.325Z,22.36
2019-05-30T12:14:15.494Z,22.41
2019-05-30T12:16:48.655Z,22.46
2019-05-30T12:19:21.881Z,22.48
2019-05-30T12:21:55.608Z,22.50
2019-05-30T12:24:29.303Z,22.52
2019-05-30T12:27:02.618Z,22.51
2019-05-30T12:29:35.969Z,22.51
2019-05-30T12:32:09.396Z,22.46
2019-05-30T12:34:42.770Z,22.46
2019-05-30T12:37:16.642Z,22.45
2019-05-30T12:39:50.136Z,22.44
2019-05-30T12:42:25.879Z,22.44
2019-05-30T12:44:59.353Z,22.39
2019-05-30T12:47:32.685Z,22.36
2019-05-30T12:50:07.817Z,22.29
2019-05-30T12:52:42.196Z,22.25
2019-05-30T12:55:15.943Z,22.21
2019-05-30T12:57:49.511Z,22.20
2019-05-30T13:00:26.989Z,22.20
2019-05-30T13:03:00.971Z,22.23
2019-05-30T13:05:34.368Z,22.23
2019-05-30T13:08:20.523Z,22.25
2019-05-30T13:10:44.229Z,22.28
2019-05-30T13:13:17.756Z,22.31
2019-05-30T13:15:54.590Z,22.32
2019-05-30T13:18:27.925Z,22.36
2019-05-30T13:21:02.154Z,22.36
2019-05-30T13:23:35.956Z,22.39
2019-05-30T13:26:09.649Z,22.44
2019-05-30T13:28:43.212Z,22.48
2019-05-30T13:31:16.834Z,22.51
2019-05-30T13:33:50.175Z,22.50
2019-05-30T13:36:23.718Z,22.46
2019-05-30T13:38:57.239Z,22.46
2019-05-30T13:41:30.824Z,22.46
2019-05-30T13:44:06.476Z,22.50
2019-05-30T13:46:38.911Z,22.45
2019-05-30T13:49:12.229Z,22.42
2019-05-30T13:51:45.571Z,22.38
2019-05-30T13:54:18.903Z,22.34
2019-05-30T13:56:52.205Z,22.29
2019-05-30T13:59:25.593Z,22.28
2019-05-30T14:01:59.839Z,22.25
2019-05-30T14:04:33.147Z,22.18
2019-05-30T14:07:06.531Z,22.15
2019-05-30T14:09:39.756Z,22.13
2019-05-30T14:12:13.022Z,22.10
2019-05-30T14:14:46.244Z,22.08
2019-05-30T14:17:19.637Z,22.06
2019-05-30T14:19:52.907Z,22.03
2019-05-30T14:22:26.172Z,21.96
2019-05-30T14:24:59.627Z,21.90
2019-05-30T14:27:34.214Z,21.84
2019-05-30T14:30:09.172Z,21.77
2019-05-30T14:32:42.415Z,21.73
2019-05-30T14:35:17.732Z,21.68
2019-05-30T14:37:51.077Z,21.68
2019-05-30T14:40:24.510Z,21.65
2019-05-30T14:42:57.773Z,21.62
2019-05-30T14:45:30.921Z,21.56
2019-05-30T14:48:04.529Z,21.56
2019-05-30T14:50:37.796Z,21.55
2019-05-30T14:53:11.063Z,21.52
2019-05-30T14:55:44.190Z,21.49
2019-05-30T14:58:17.854Z,21.45
2019-05-30T15:00:51.018Z,21.42
2019-05-30T15:03:24.401Z,21.38
2019-05-30T15:05:57.750Z,21.34
2019-05-30T15:08:31.112Z,21.30
2019-05-30T15:11:05.422Z,21.27
2019-05-30T15:13:38.811Z,21.21
2019-05-30T15:16:13.030Z,21.13
2019-05-30T15:18:46.445Z,21.10
2019-05-30T15:21:19.670Z,21.03
2019-05-30T15:23:53.183Z,20.97
2019-05-30T15:26:26.613Z,20.96
2019-05-30T15:29:00.079Z,20.93
2019-05-30T15:31:33.558Z,20.90
2019-05-30T15:34:08.386Z,20.89
2019-05-30T15:36:44.498Z,20.87
2019-05-30T15:39:30.687Z,20.84
2019-05-30T15:41:53.096Z,20.82
2019-05-30T15:44:26.629Z,20.79
2019-05-30T15:47:00.448Z,20.79
2019-05-30T15:49:33.896Z,20.76
2019-05-30T15:52:08.689Z,20.75
2019-05-30T15:54:42.161Z,20.73
2019-05-30T15:57:15.696Z,20.70
2019-05-30T15:59:48.924Z,20.64
2019-05-30T16:02:22.066Z,20.63
2019-05-30T16:04:55.509Z,20.59
2019-05-30T16:07:28.997Z,20.56
2019-05-30T16:10:02.363Z,20.49
2019-05-30T16:12:35.663Z,20.49
2019-05-30T16:15:09.740Z,20.46
2019-05-30T16:17:42.959Z,20.45
2019-05-30T16:20:17.894Z,20.45
2019-05-30T16:22:51.280Z,20.42
2019-05-30T16:25:24.506Z,20.41
2019-05-30T16:27:57.582Z,20.38
2019-05-30T16:30:30.924Z,20.41
2019-05-30T16:33:04.366Z,20.38
2019-05-30T16:35:37.761Z,20.32
2019-05-30T16:38:11.179Z,20.32
2019-05-30T16:40:45.455Z,20.35
2019-05-30T16:43:18.721Z,20.31
2019-05-30T16:45:52.011Z,20.29
2019-05-30T16:48:25.310Z,20.31
2019-05-30T16:50:58.636Z,20.29
2019-05-30T16:53:31.887Z,20.27
2019-05-30T16:56:05.366Z,20.25
2019-05-30T16:58:38.614Z,20.22
2019-05-30T17:01:11.862Z,20.20
2019-05-30T17:03:45.238Z,20.20
2019-05-30T17:06:18.588Z,20.18
2019-05-30T17:08:51.887Z,20.15
2019-05-30T17:11:25.615Z,20.11
2019-05-30T17:13:59.150Z,20.11
2019-05-30T17:16:32.439Z,20.10
2019-05-30T17:19:06.758Z,20.08
2019-05-30T17:21:40.156Z,20.07
2019-05-30T17:24:13.715Z,20.05
2019-05-30T17:26:51.228Z,20.04
2019-05-30T17:29:23.556Z,20.00
2019-05-30T17:31:57.126Z,19.97
2019-05-30T17:34:30.482Z,19.94
2019-05-30T17:37:04.052Z,19.91
2019-05-30T17:39:37.481Z,19.88
2019-05-30T17:42:10.808Z,19.87
2019-05-30T17:44:46.649Z,19.84
2019-05-30T17:47:23.876Z,19.80
2019-05-30T17:50:17.329Z,19.76
2019-05-30T17:52:54.306Z,19.73
2019-05-30T17:55:28.010Z,19.70
2019-05-30T17:58:01.508Z,19.65
2019-05-30T18:00:34.884Z,19.62
2019-05-30T18:03:08.103Z,19.59
2019-05-30T18:05:41.350Z,19.55
2019-05-30T18:08:14.683Z,19.50
2019-05-30T18:10:53.836Z,19.46
2019-05-30T18:13:23.039Z,19.42
2019-05-30T18:15:56.334Z,19.39
2019-05-30T18:18:29.550Z,19.37
2019-05-30T18:21:02.904Z,19.30
2019-05-30T18:23:36.329Z,19.25
2019-05-30T18:26:09.523Z,19.22
2019-05-30T18:28:42.767Z,19.17
2019-05-30T18:31:16.012Z,19.11
2019-05-30T18:33:49.358Z,19.07
2019-05-30T18:36:22.600Z,19.00
2019-05-30T18:38:55.946Z,18.93
2019-05-30T18:41:29.137Z,18.86
2019-05-30T18:44:02.489Z,18.77
2019-05-30T18:46:38.559Z,18.75
2019-05-30T18:49:10.759Z,18.63
2019-05-30T18:51:44.135Z,18.56
2019-05-30T18:54:17.519Z,18.49
2019-05-30T18:56:51.033Z,18.42
2019-05-30T18:59:25.469Z,18.33
2019-05-30T19:01:58.914Z,18.29
2019-05-30T19:04:33.580Z,18.21
2019-05-30T19:07:07.177Z,18.14
2019-05-30T19:09:40.660Z,18.07
2019-05-30T19:12:14.834Z,17.99
2019-05-30T19:14:48.262Z,17.91
2019-05-30T19:17:21.401Z,17.83
2019-05-30T19:19:54.673Z,17.76
2019-05-30T19:22:28.431Z,17.70
2019-05-30T19:25:02.208Z,17.62
2019-05-30T19:27:37.109Z,17.53
2019-05-30T19:30:18.236Z,17.46
2019-05-30T19:32:52.241Z,17.41
2019-05-30T19:35:28.878Z,17.31
2019-05-30T19:38:00.794Z,17.27
2019-05-30T19:40:34.294Z,17.17
2019-05-30T19:43:07.718Z,17.10
2019-05-30T19:45:41.162Z,17.03
2019-05-30T19:48:14.493Z,16.97
2019-05-30T19:50:48.019Z,16.89
2019-05-30T19:53:21.378Z,16.83
2019-05-30T19:55:54.753Z,16.74
2019-05-30T19:58:29.434Z,16.69
2019-05-30T20:01:03.900Z,16.63
2019-05-30T20:03:43.579Z,16.55
2019-05-30T20:06:12.338Z,16.49
2019-05-30T20:08:55.103Z,16.42
2019-05-30T20:11:20.956Z,16.38
2019-05-30T20:13:54.257Z,16.34
2019-05-30T20:16:27.639Z,16.27
2019-05-30T20:19:01.069Z,16.18
2019-05-30T20:21:35.671Z,16.16
2019-05-30T20:24:09.194Z,16.08
2019-05-30T20:26:42.832Z,16.04
2019-05-30T20:29:17.501Z,15.97
2019-05-30T20:31:51.120Z,15.94
2019-05-30T20:34:24.381Z,15.87
2019-05-30T20:36:57.786Z,15.84
2019-05-30T20:39:31.175Z,15.77
2019-05-30T20:42:18.309Z,15.70
2019-05-30T20:44:39.397Z,15.66
2019-05-30T20:47:12.760Z,15.59
2019-05-30T20:49:47.499Z,15.53
2019-05-30T20:52:21.048Z,15.46
2019-05-30T20:54:55.480Z,15.45
2019-05-30T20:57:28.990Z,15.37
2019-05-30T21:00:02.514Z,15.35
2019-05-30T21:02:38.747Z,15.30
2019-05-30T21:05:13.429Z,15.24
2019-05-30T21:07:47.641Z,15.21
2019-05-30T21:10:22.846Z,15.17
2019-05-30T21:12:59.188Z,15.15
2019-05-30T21:15:37.452Z,15.08
2019-05-30T21:18:11.006Z,15.06
2019-05-30T21:20:44.497Z,15.00
2019-05-30T21:23:18.011Z,14.96
2019-05-30T21:25:52.512Z,14.94
2019-05-30T21:28:26.052Z,14.87
2019-05-30T21:30:59.965Z,14.80
2019-05-30T21:33:33.546Z,14.77
2019-05-30T21:36:06.966Z,14.73
2019-05-30T21:38:40.466Z,14.68
2019-05-30T21:41:14.019Z,14.63
2019-05-30T21:43:49.160Z,14.60
2019-05-30T21:46:22.667Z,14.56
2019-05-30T21:48:56.506Z,14.49
2019-05-30T21:51:31.205Z,14.47
2019-05-30T21:54:08.046Z,14.41
2019-05-30T21:56:43.656Z,14.36
2019-05-30T21:59:19.065Z,14.29
2019-05-30T22:01:57.185Z,14.27
2019-05-30T22:04:27.618Z,14.21
2019-05-30T22:07:01.084Z,16.56
2019-05-30T22:09:34.599Z,20.10
2019-05-30T22:12:08.622Z,20.25
2019-05-30T22:14:42.105Z,18.93
2019-05-30T22:17:15.538Z,17.97
2019-05-30T22:19:50.034Z,17.37
2019-05-30T22:22:23.614Z,16.93
2019-05-30T22:24:57.578Z,16.60
2019-05-30T22:27:31.029Z,16.32
2019-05-30T22:30:05.096Z,16.08
2019-05-30T22:32:38.629Z,15.89
2019-05-30T22:35:12.328Z,15.68
2019-05-30T22:37:46.802Z,15.52
2019-05-30T22:40:20.322Z,15.34
2019-05-30T22:42:54.600Z,15.18
2019-05-30T22:45:28.063Z,15.03
2019-05-30T22:48:01.514Z,14.87
2019-05-30T22:50:35.122Z,14.76
2019-05-30T22:53:08.656Z,14.62
2019-05-30T22:55:42.236Z,14.53
2019-05-30T22:58:15.692Z,14.43
2019-05-30T23:00:49.965Z,14.29
2019-05-30T23:03:24.687Z,14.21
2019-05-30T23:05:58.592Z,16.56
2019-05-30T23:08:32.180Z,20.14
2019-05-30T23:11:06.342Z,20.08
2019-05-30T23:13:40.941Z,18.72
2019-05-30T23:16:14.656Z,17.73
2019-05-30T23:18:48.409Z,17.13
2019-05-30T23:21:21.887Z,16.72
2019-05-30T23:23:55.397Z,16.35
2019-05-30T23:26:28.805Z,16.07
2019-05-30T23:29:02.270Z,15.84
2019-05-30T23:31:35.632Z,15.59
2019-05-30T23:34:08.971Z,15.37
2019-05-30T23:36:42.227Z,15.18
2019-05-30T23:39:15.510Z,14.98
2019-05-30T23:41:48.941Z,14.83
2019-05-30T23:44:24.175Z,14.66
2019-05-30T23:46:57.933Z,14.52
2019-05-30T23:49:31.214Z,14.36
2019-05-30T23:52:04.588Z,14.21
2019-05-30T23:54:37.845Z,14.11
2019-05-30T23:57:11.096Z,13.98
2019-05-30T23:59:44.447Z,13.87
